Scotland, Georgia
Current Conditions -  °F | °C
As of 4:15 AM on Monday 24 Nov 2014 (Local Time) from KAZE Reporting Station
Overcast Overcast  
Wind Chill: 68°   Ceiling: 200
Heat Index: 68°   Visibility: 7mi
Dew Point: 68°   Wind: 5mph
Humidity: 100%   Direction: 210°SSW
Pressure: 29.81"   Gusts: NA
Location:  32.05°N, 82.82°W
Report Text: KAZE 240915Z AUTO 21004KT 7SM OVC002 20/20 A2981 RMK AO2 T02000200
Loading
Personal Weather Stations






























Interactive Weather Map New forecast layout! Learn more

10-Day Weather Forecast

Advertisements
Track Severe Weather on mobile